sensor_id;sensor_type;location;lat;lon;timestamp;P1;durP1;ratioP1;P2;durP2;ratioP2
38615;SDS011;24370;51.986;4.666;2023-05-07T00:02:13;11.10;;;6.88;;
38615;SDS011;24370;51.986;4.666;2023-05-07T00:04:39;13.60;;;7.65;;
38615;SDS011;24370;51.986;4.666;2023-05-07T00:07:04;12.85;;;7.13;;
38615;SDS011;24370;51.986;4.666;2023-05-07T00:09:30;12.07;;;7.70;;
38615;SDS011;24370;51.986;4.666;2023-05-07T00:11:56;10.77;;;7.20;;
38615;SDS011;24370;51.986;4.666;2023-05-07T00:14:21;11.98;;;7.72;;
38615;SDS011;24370;51.986;4.666;2023-05-07T00:16:46;11.93;;;7.07;;
38615;SDS011;24370;51.986;4.666;2023-05-07T00:19:12;12.25;;;7.22;;
38615;SDS011;24370;51.986;4.666;2023-05-07T00:21:37;9.95;;;6.53;;
38615;SDS011;24370;51.986;4.666;2023-05-07T00:24:02;12.05;;;7.10;;
38615;SDS011;24370;51.986;4.666;2023-05-07T00:26:31;12.55;;;6.95;;
38615;SDS011;24370;51.986;4.666;2023-05-07T00:28:56;11.80;;;6.95;;
38615;SDS011;24370;51.986;4.666;2023-05-07T00:31:21;11.77;;;7.15;;
38615;SDS011;24370;51.986;4.666;2023-05-07T00:33:47;12.50;;;6.90;;
38615;SDS011;24370;51.986;4.666;2023-05-07T00:36:12;12.73;;;7.22;;
38615;SDS011;24370;51.986;4.666;2023-05-07T00:38:38;13.75;;;8.15;;
38615;SDS011;24370;51.986;4.666;2023-05-07T00:41:03;13.88;;;8.63;;
38615;SDS011;24370;51.986;4.666;2023-05-07T00:43:30;12.15;;;7.20;;
38615;SDS011;24370;51.986;4.666;2023-05-07T00:45:55;13.48;;;7.72;;
38615;SDS011;24370;51.986;4.666;2023-05-07T00:48:21;14.68;;;7.95;;
38615;SDS011;24370;51.986;4.666;2023-05-07T00:50:46;14.38;;;7.50;;
38615;SDS011;24370;51.986;4.666;2023-05-07T00:53:13;14.60;;;8.27;;
38615;SDS011;24370;51.986;4.666;2023-05-07T00:55:38;13.25;;;7.50;;
38615;SDS011;24370;51.986;4.666;2023-05-07T00:58:04;15.10;;;8.13;;
38615;SDS011;24370;51.986;4.666;2023-05-07T01:00:30;13.15;;;7.43;;
38615;SDS011;24370;51.986;4.666;2023-05-07T01:02:56;13.48;;;7.90;;
38615;SDS011;24370;51.986;4.666;2023-05-07T01:05:22;14.07;;;8.30;;
38615;SDS011;24370;51.986;4.666;2023-05-07T01:07:49;13.85;;;8.23;;
38615;SDS011;24370;51.986;4.666;2023-05-07T01:10:16;15.95;;;9.07;;
38615;SDS011;24370;51.986;4.666;2023-05-07T01:12:42;13.68;;;7.80;;
38615;SDS011;24370;51.986;4.666;2023-05-07T01:15:10;12.75;;;7.78;;
38615;SDS011;24370;51.986;4.666;2023-05-07T01:17:36;15.02;;;8.30;;
38615;SDS011;24370;51.986;4.666;2023-05-07T01:20:05;15.63;;;9.00;;
38615;SDS011;24370;51.986;4.666;2023-05-07T01:22:35;14.32;;;8.32;;
38615;SDS011;24370;51.986;4.666;2023-05-07T01:25:04;19.88;;;9.05;;
38615;SDS011;24370;51.986;4.666;2023-05-07T01:27:31;15.90;;;9.25;;
38615;SDS011;24370;51.986;4.666;2023-05-07T01:29:58;16.05;;;9.20;;
38615;SDS011;24370;51.986;4.666;2023-05-07T01:32:26;18.33;;;9.40;;
38615;SDS011;24370;51.986;4.666;2023-05-07T01:34:56;16.33;;;8.82;;
38615;SDS011;24370;51.986;4.666;2023-05-07T01:37:23;15.85;;;9.38;;
38615;SDS011;24370;51.986;4.666;2023-05-07T01:39:50;17.10;;;9.18;;
38615;SDS011;24370;51.986;4.666;2023-05-07T01:42:15;15.60;;;9.38;;
38615;SDS011;24370;51.986;4.666;2023-05-07T01:44:41;15.73;;;9.38;;
38615;SDS011;24370;51.986;4.666;2023-05-07T01:47:06;13.57;;;8.55;;
38615;SDS011;24370;51.986;4.666;2023-05-07T01:49:33;14.20;;;9.25;;
38615;SDS011;24370;51.986;4.666;2023-05-07T01:51:59;17.17;;;8.65;;
38615;SDS011;24370;51.986;4.666;2023-05-07T01:54:26;16.35;;;8.55;;
38615;SDS011;24370;51.986;4.666;2023-05-07T01:56:52;14.32;;;8.27;;
38615;SDS011;24370;51.986;4.666;2023-05-07T01:59:18;12.48;;;8.10;;
38615;SDS011;24370;51.986;4.666;2023-05-07T02:01:43;13.65;;;7.95;;
38615;SDS011;24370;51.986;4.666;2023-05-07T02:04:09;15.07;;;8.60;;
38615;SDS011;24370;51.986;4.666;2023-05-07T02:06:34;17.38;;;9.00;;
38615;SDS011;24370;51.986;4.666;2023-05-07T02:09:00;15.55;;;9.60;;
38615;SDS011;24370;51.986;4.666;2023-05-07T02:11:26;15.93;;;8.60;;
38615;SDS011;24370;51.986;4.666;2023-05-07T02:13:51;15.98;;;8.25;;
38615;SDS011;24370;51.986;4.666;2023-05-07T02:16:18;15.05;;;7.88;;
38615;SDS011;24370;51.986;4.666;2023-05-07T02:18:44;13.05;;;8.40;;
38615;SDS011;24370;51.986;4.666;2023-05-07T02:21:09;13.07;;;8.50;;
38615;SDS011;24370;51.986;4.666;2023-05-07T02:23:35;14.88;;;8.40;;
38615;SDS011;24370;51.986;4.666;2023-05-07T02:26:00;12.60;;;7.72;;
38615;SDS011;24370;51.986;4.666;2023-05-07T02:28:25;14.00;;;8.15;;
38615;SDS011;24370;51.986;4.666;2023-05-07T02:30:51;12.27;;;8.38;;
38615;SDS011;24370;51.986;4.666;2023-05-07T02:33:17;11.00;;;7.95;;
38615;SDS011;24370;51.986;4.666;2023-05-07T02:35:43;14.98;;;8.82;;
38615;SDS011;24370;51.986;4.666;2023-05-07T02:38:08;15.68;;;7.75;;
38615;SDS011;24370;51.986;4.666;2023-05-07T02:40:35;13.82;;;8.20;;
38615;SDS011;24370;51.986;4.666;2023-05-07T02:43:04;14.48;;;8.40;;
38615;SDS011;24370;51.986;4.666;2023-05-07T02:45:30;10.90;;;7.18;;
38615;SDS011;24370;51.986;4.666;2023-05-07T02:47:56;13.38;;;7.70;;
38615;SDS011;24370;51.986;4.666;2023-05-07T02:50:21;10.48;;;6.60;;
38615;SDS011;24370;51.986;4.666;2023-05-07T02:52:46;12.15;;;7.50;;
38615;SDS011;24370;51.986;4.666;2023-05-07T02:55:12;11.77;;;7.40;;
38615;SDS011;24370;51.986;4.666;2023-05-07T02:57:38;9.38;;;6.68;;
38615;SDS011;24370;51.986;4.666;2023-05-07T03:00:19;9.75;;;6.55;;
38615;SDS011;24370;51.986;4.666;2023-05-07T03:02:45;12.38;;;6.93;;
38615;SDS011;24370;51.986;4.666;2023-05-07T03:05:11;10.15;;;6.85;;
38615;SDS011;24370;51.986;4.666;2023-05-07T03:07:37;9.88;;;6.43;;
38615;SDS011;24370;51.986;4.666;2023-05-07T03:10:06;8.43;;;6.00;;
38615;SDS011;24370;51.986;4.666;2023-05-07T03:12:31;10.93;;;7.13;;
38615;SDS011;24370;51.986;4.666;2023-05-07T03:14:56;9.23;;;6.43;;
38615;SDS011;24370;51.986;4.666;2023-05-07T03:17:22;8.68;;;6.70;;
38615;SDS011;24370;51.986;4.666;2023-05-07T03:19:47;7.90;;;5.78;;
38615;SDS011;24370;51.986;4.666;2023-05-07T03:22:13;7.75;;;5.80;;
38615;SDS011;24370;51.986;4.666;2023-05-07T03:24:39;10.38;;;6.20;;
38615;SDS011;24370;51.986;4.666;2023-05-07T03:27:04;7.40;;;5.60;;
38615;SDS011;24370;51.986;4.666;2023-05-07T03:29:30;8.45;;;6.43;;
38615;SDS011;24370;51.986;4.666;2023-05-07T03:31:55;8.10;;;6.18;;
38615;SDS011;24370;51.986;4.666;2023-05-07T03:34:20;9.15;;;5.60;;
38615;SDS011;24370;51.986;4.666;2023-05-07T03:36:48;9.85;;;5.97;;
38615;SDS011;24370;51.986;4.666;2023-05-07T03:39:13;10.07;;;6.10;;
38615;SDS011;24370;51.986;4.666;2023-05-07T03:41:39;9.27;;;5.90;;
38615;SDS011;24370;51.986;4.666;2023-05-07T03:44:04;7.97;;;5.82;;
38615;SDS011;24370;51.986;4.666;2023-05-07T03:46:30;10.43;;;6.28;;
38615;SDS011;24370;51.986;4.666;2023-05-07T03:48:57;9.10;;;5.60;;
38615;SDS011;24370;51.986;4.666;2023-05-07T03:51:23;8.90;;;5.68;;
38615;SDS011;24370;51.986;4.666;2023-05-07T03:53:48;6.93;;;5.15;;
38615;SDS011;24370;51.986;4.666;2023-05-07T03:56:13;9.00;;;6.40;;
38615;SDS011;24370;51.986;4.666;2023-05-07T03:58:39;9.68;;;6.43;;
38615;SDS011;24370;51.986;4.666;2023-05-07T04:01:04;7.93;;;6.05;;
38615;SDS011;24370;51.986;4.666;2023-05-07T04:03:30;6.85;;;5.32;;
38615;SDS011;24370;51.986;4.666;2023-05-07T04:05:55;8.85;;;5.82;;
38615;SDS011;24370;51.986;4.666;2023-05-07T04:08:21;7.47;;;5.75;;
38615;SDS011;24370;51.986;4.666;2023-05-07T04:10:46;7.75;;;5.82;;
38615;SDS011;24370;51.986;4.666;2023-05-07T04:13:11;7.55;;;5.93;;
38615;SDS011;24370;51.986;4.666;2023-05-07T04:15:37;7.38;;;5.70;;
38615;SDS011;24370;51.986;4.666;2023-05-07T04:18:06;7.70;;;5.32;;
38615;SDS011;24370;51.986;4.666;2023-05-07T04:20:33;10.88;;;6.57;;
38615;SDS011;24370;51.986;4.666;2023-05-07T04:22:59;9.25;;;6.15;;
38615;SDS011;24370;51.986;4.666;2023-05-07T04:25:25;6.70;;;5.47;;
38615;SDS011;24370;51.986;4.666;2023-05-07T04:27:51;6.82;;;5.47;;
38615;SDS011;24370;51.986;4.666;2023-05-07T04:30:17;10.20;;;5.60;;
38615;SDS011;24370;51.986;4.666;2023-05-07T04:32:42;9.93;;;6.13;;
38615;SDS011;24370;51.986;4.666;2023-05-07T04:35:09;9.65;;;6.45;;
38615;SDS011;24370;51.986;4.666;2023-05-07T04:37:35;13.38;;;7.53;;
38615;SDS011;24370;51.986;4.666;2023-05-07T04:40:00;10.68;;;6.78;;
38615;SDS011;24370;51.986;4.666;2023-05-07T04:42:26;9.20;;;6.30;;
38615;SDS011;24370;51.986;4.666;2023-05-07T04:44:52;8.32;;;5.90;;
38615;SDS011;24370;51.986;4.666;2023-05-07T04:47:18;8.70;;;6.47;;
38615;SDS011;24370;51.986;4.666;2023-05-07T04:49:44;8.52;;;6.15;;
38615;SDS011;24370;51.986;4.666;2023-05-07T04:52:09;10.82;;;6.55;;
38615;SDS011;24370;51.986;4.666;2023-05-07T04:54:35;9.35;;;6.70;;
38615;SDS011;24370;51.986;4.666;2023-05-07T04:57:00;9.15;;;6.53;;
38615;SDS011;24370;51.986;4.666;2023-05-07T04:59:25;9.60;;;7.00;;
38615;SDS011;24370;51.986;4.666;2023-05-07T05:01:51;9.43;;;6.15;;
38615;SDS011;24370;51.986;4.666;2023-05-07T05:04:16;9.07;;;6.50;;
38615;SDS011;24370;51.986;4.666;2023-05-07T05:06:41;9.95;;;6.05;;
38615;SDS011;24370;51.986;4.666;2023-05-07T05:09:07;9.52;;;6.63;;
38615;SDS011;24370;51.986;4.666;2023-05-07T05:11:32;9.43;;;6.38;;
38615;SDS011;24370;51.986;4.666;2023-05-07T05:13:59;9.20;;;6.65;;
38615;SDS011;24370;51.986;4.666;2023-05-07T05:16:25;11.35;;;7.07;;
38615;SDS011;24370;51.986;4.666;2023-05-07T05:18:51;9.07;;;6.22;;
38615;SDS011;24370;51.986;4.666;2023-05-07T05:21:20;9.15;;;6.25;;
38615;SDS011;24370;51.986;4.666;2023-05-07T05:23:45;13.15;;;6.18;;
38615;SDS011;24370;51.986;4.666;2023-05-07T05:26:11;10.32;;;6.97;;
38615;SDS011;24370;51.986;4.666;2023-05-07T05:28:36;9.20;;;6.75;;
38615;SDS011;24370;51.986;4.666;2023-05-07T05:31:01;9.98;;;6.32;;
38615;SDS011;24370;51.986;4.666;2023-05-07T05:33:27;9.85;;;6.03;;
38615;SDS011;24370;51.986;4.666;2023-05-07T05:35:53;7.68;;;5.88;;
38615;SDS011;24370;51.986;4.666;2023-05-07T05:38:19;9.43;;;6.80;;
38615;SDS011;24370;51.986;4.666;2023-05-07T05:40:45;10.40;;;6.50;;
38615;SDS011;24370;51.986;4.666;2023-05-07T05:43:11;9.60;;;6.70;;
38615;SDS011;24370;51.986;4.666;2023-05-07T05:45:36;9.30;;;6.78;;
38615;SDS011;24370;51.986;4.666;2023-05-07T05:48:02;11.93;;;7.00;;
38615;SDS011;24370;51.986;4.666;2023-05-07T05:50:27;13.63;;;7.30;;
38615;SDS011;24370;51.986;4.666;2023-05-07T05:52:52;10.25;;;6.50;;
38615;SDS011;24370;51.986;4.666;2023-05-07T05:55:18;13.93;;;8.02;;
38615;SDS011;24370;51.986;4.666;2023-05-07T05:57:43;13.05;;;8.13;;
38615;SDS011;24370;51.986;4.666;2023-05-07T06:00:09;13.48;;;7.70;;
38615;SDS011;24370;51.986;4.666;2023-05-07T06:02:35;12.60;;;8.20;;
38615;SDS011;24370;51.986;4.666;2023-05-07T06:05:00;12.85;;;9.00;;
38615;SDS011;24370;51.986;4.666;2023-05-07T06:07:26;17.70;;;10.45;;
38615;SDS011;24370;51.986;4.666;2023-05-07T06:09:51;13.82;;;9.00;;
38615;SDS011;24370;51.986;4.666;2023-05-07T06:12:16;12.82;;;8.35;;
38615;SDS011;24370;51.986;4.666;2023-05-07T06:14:45;14.93;;;8.45;;
38615;SDS011;24370;51.986;4.666;2023-05-07T06:17:10;13.35;;;8.63;;
38615;SDS011;24370;51.986;4.666;2023-05-07T06:19:35;14.15;;;8.40;;
38615;SDS011;24370;51.986;4.666;2023-05-07T06:22:01;14.27;;;9.20;;
38615;SDS011;24370;51.986;4.666;2023-05-07T06:24:27;17.13;;;10.23;;
38615;SDS011;24370;51.986;4.666;2023-05-07T06:26:53;15.82;;;10.10;;
38615;SDS011;24370;51.986;4.666;2023-05-07T06:29:18;13.52;;;7.97;;
38615;SDS011;24370;51.986;4.666;2023-05-07T06:31:44;13.80;;;8.40;;
38615;SDS011;24370;51.986;4.666;2023-05-07T06:34:09;16.30;;;8.98;;
38615;SDS011;24370;51.986;4.666;2023-05-07T06:36:39;15.50;;;8.35;;
38615;SDS011;24370;51.986;4.666;2023-05-07T06:39:04;12.50;;;8.52;;
38615;SDS011;24370;51.986;4.666;2023-05-07T06:41:30;15.43;;;9.25;;
38615;SDS011;24370;51.986;4.666;2023-05-07T06:43:55;13.68;;;8.27;;
38615;SDS011;24370;51.986;4.666;2023-05-07T06:46:20;15.65;;;8.02;;
38615;SDS011;24370;51.986;4.666;2023-05-07T06:48:46;12.38;;;8.05;;
38615;SDS011;24370;51.986;4.666;2023-05-07T06:51:11;15.57;;;8.95;;
38615;SDS011;24370;51.986;4.666;2023-05-07T06:53:36;14.27;;;8.75;;
38615;SDS011;24370;51.986;4.666;2023-05-07T06:56:02;15.50;;;8.25;;
38615;SDS011;24370;51.986;4.666;2023-05-07T06:58:27;11.77;;;7.85;;
38615;SDS011;24370;51.986;4.666;2023-05-07T07:00:53;12.32;;;7.85;;
38615;SDS011;24370;51.986;4.666;2023-05-07T07:03:18;10.90;;;7.60;;
38615;SDS011;24370;51.986;4.666;2023-05-07T07:05:43;12.02;;;7.53;;
38615;SDS011;24370;51.986;4.666;2023-05-07T07:08:09;14.82;;;7.78;;
38615;SDS011;24370;51.986;4.666;2023-05-07T07:10:35;12.57;;;8.07;;
38615;SDS011;24370;51.986;4.666;2023-05-07T07:13:00;15.68;;;10.05;;
38615;SDS011;24370;51.986;4.666;2023-05-07T07:15:26;18.70;;;11.13;;
38615;SDS011;24370;51.986;4.666;2023-05-07T07:17:51;18.02;;;11.10;;
38615;SDS011;24370;51.986;4.666;2023-05-07T07:20:16;17.55;;;10.15;;
38615;SDS011;24370;51.986;4.666;2023-05-07T07:22:42;19.33;;;10.82;;
38615;SDS011;24370;51.986;4.666;2023-05-07T07:25:07;14.35;;;9.63;;
38615;SDS011;24370;51.986;4.666;2023-05-07T07:27:33;16.58;;;10.50;;
38615;SDS011;24370;51.986;4.666;2023-05-07T07:29:59;15.95;;;10.18;;
38615;SDS011;24370;51.986;4.666;2023-05-07T07:32:24;19.40;;;11.38;;
38615;SDS011;24370;51.986;4.666;2023-05-07T07:34:50;17.85;;;11.40;;
38615;SDS011;24370;51.986;4.666;2023-05-07T07:37:16;14.13;;;10.45;;
38615;SDS011;24370;51.986;4.666;2023-05-07T07:39:41;15.93;;;10.25;;
38615;SDS011;24370;51.986;4.666;2023-05-07T07:42:06;14.90;;;10.18;;
38615;SDS011;24370;51.986;4.666;2023-05-07T07:44:32;16.65;;;10.48;;
38615;SDS011;24370;51.986;4.666;2023-05-07T07:46:57;14.10;;;9.90;;
38615;SDS011;24370;51.986;4.666;2023-05-07T07:49:23;14.63;;;9.88;;
38615;SDS011;24370;51.986;4.666;2023-05-07T07:51:48;15.20;;;10.05;;
38615;SDS011;24370;51.986;4.666;2023-05-07T07:54:13;16.08;;;10.13;;
38615;SDS011;24370;51.986;4.666;2023-05-07T07:56:39;11.70;;;8.00;;
38615;SDS011;24370;51.986;4.666;2023-05-07T07:59:04;9.52;;;6.78;;
38615;SDS011;24370;51.986;4.666;2023-05-07T08:01:30;9.73;;;5.68;;
38615;SDS011;24370;51.986;4.666;2023-05-07T08:03:55;9.02;;;6.28;;
38615;SDS011;24370;51.986;4.666;2023-05-07T08:06:23;10.52;;;6.55;;
38615;SDS011;24370;51.986;4.666;2023-05-07T08:08:49;9.27;;;6.25;;
38615;SDS011;24370;51.986;4.666;2023-05-07T08:11:14;8.43;;;5.97;;
38615;SDS011;24370;51.986;4.666;2023-05-07T08:13:39;10.45;;;5.88;;
38615;SDS011;24370;51.986;4.666;2023-05-07T08:16:05;8.65;;;6.30;;
38615;SDS011;24370;51.986;4.666;2023-05-07T08:18:30;7.03;;;5.60;;
38615;SDS011;24370;51.986;4.666;2023-05-07T08:20:56;9.18;;;6.38;;
38615;SDS011;24370;51.986;4.666;2023-05-07T08:23:21;10.95;;;6.13;;
38615;SDS011;24370;51.986;4.666;2023-05-07T08:25:47;9.82;;;6.10;;
38615;SDS011;24370;51.986;4.666;2023-05-07T08:28:14;10.60;;;5.70;;
38615;SDS011;24370;51.986;4.666;2023-05-07T08:30:40;9.82;;;6.53;;
38615;SDS011;24370;51.986;4.666;2023-05-07T08:33:05;8.30;;;6.38;;
38615;SDS011;24370;51.986;4.666;2023-05-07T08:35:31;7.50;;;6.00;;
38615;SDS011;24370;51.986;4.666;2023-05-07T08:37:56;6.75;;;5.15;;
38615;SDS011;24370;51.986;4.666;2023-05-07T08:40:23;7.72;;;5.88;;
38615;SDS011;24370;51.986;4.666;2023-05-07T08:42:51;7.20;;;5.68;;
38615;SDS011;24370;51.986;4.666;2023-05-07T08:45:19;8.18;;;5.85;;
38615;SDS011;24370;51.986;4.666;2023-05-07T08:47:52;6.35;;;5.10;;
38615;SDS011;24370;51.986;4.666;2023-05-07T08:50:23;7.18;;;4.93;;
38615;SDS011;24370;51.986;4.666;2023-05-07T08:52:49;5.53;;;4.20;;
38615;SDS011;24370;51.986;4.666;2023-05-07T08:55:15;5.63;;;3.80;;
38615;SDS011;24370;51.986;4.666;2023-05-07T08:57:40;6.43;;;4.80;;
38615;SDS011;24370;51.986;4.666;2023-05-07T09:00:06;8.95;;;4.65;;
38615;SDS011;24370;51.986;4.666;2023-05-07T09:02:32;5.63;;;4.10;;
38615;SDS011;24370;51.986;4.666;2023-05-07T09:04:58;6.95;;;4.35;;
38615;SDS011;24370;51.986;4.666;2023-05-07T09:07:24;7.25;;;4.60;;
38615;SDS011;24370;51.986;4.666;2023-05-07T09:09:50;8.45;;;4.93;;
38615;SDS011;24370;51.986;4.666;2023-05-07T09:12:17;8.88;;;5.18;;
38615;SDS011;24370;51.986;4.666;2023-05-07T09:14:43;8.00;;;5.03;;
38615;SDS011;24370;51.986;4.666;2023-05-07T09:17:09;7.32;;;5.47;;
38615;SDS011;24370;51.986;4.666;2023-05-07T09:19:34;6.90;;;4.78;;
38615;SDS011;24370;51.986;4.666;2023-05-07T09:22:06;7.50;;;5.32;;
38615;SDS011;24370;51.986;4.666;2023-05-07T09:24:32;8.13;;;5.45;;
38615;SDS011;24370;51.986;4.666;2023-05-07T09:27:02;7.25;;;4.97;;
38615;SDS011;24370;51.986;4.666;2023-05-07T09:29:28;7.45;;;5.72;;
38615;SDS011;24370;51.986;4.666;2023-05-07T09:32:00;7.70;;;4.88;;
38615;SDS011;24370;51.986;4.666;2023-05-07T09:34:26;7.00;;;4.63;;
38615;SDS011;24370;51.986;4.666;2023-05-07T09:36:51;6.50;;;4.60;;
38615;SDS011;24370;51.986;4.666;2023-05-07T09:39:16;7.20;;;4.55;;
38615;SDS011;24370;51.986;4.666;2023-05-07T09:41:45;6.15;;;4.38;;
38615;SDS011;24370;51.986;4.666;2023-05-07T09:44:12;7.43;;;4.20;;
38615;SDS011;24370;51.986;4.666;2023-05-07T09:46:39;8.15;;;4.43;;
38615;SDS011;24370;51.986;4.666;2023-05-07T09:49:07;8.13;;;4.40;;
38615;SDS011;24370;51.986;4.666;2023-05-07T09:51:47;8.90;;;4.53;;
38615;SDS011;24370;51.986;4.666;2023-05-07T09:54:15;8.20;;;4.75;;
38615;SDS011;24370;51.986;4.666;2023-05-07T09:56:42;6.68;;;4.88;;
38615;SDS011;24370;51.986;4.666;2023-05-07T09:59:13;8.13;;;4.55;;
38615;SDS011;24370;51.986;4.666;2023-05-07T10:01:40;7.35;;;4.80;;
38615;SDS011;24370;51.986;4.666;2023-05-07T10:04:07;7.80;;;4.25;;
38615;SDS011;24370;51.986;4.666;2023-05-07T10:06:34;6.07;;;4.50;;
38615;SDS011;24370;51.986;4.666;2023-05-07T10:09:00;7.85;;;5.35;;
38615;SDS011;24370;51.986;4.666;2023-05-07T10:11:27;7.30;;;4.97;;
38615;SDS011;24370;51.986;4.666;2023-05-07T10:13:53;5.80;;;4.38;;
38615;SDS011;24370;51.986;4.666;2023-05-07T10:16:20;8.10;;;3.80;;
38615;SDS011;24370;51.986;4.666;2023-05-07T10:18:46;6.07;;;3.45;;
38615;SDS011;24370;51.986;4.666;2023-05-07T10:21:17;5.15;;;4.22;;
38615;SDS011;24370;51.986;4.666;2023-05-07T10:23:55;5.32;;;3.60;;
38615;SDS011;24370;51.986;4.666;2023-05-07T10:26:24;4.57;;;3.72;;
38615;SDS011;24370;51.986;4.666;2023-05-07T10:28:54;4.85;;;3.28;;
38615;SDS011;24370;51.986;4.666;2023-05-07T10:34:38;9.00;;;4.00;;
38615;SDS011;24370;51.986;4.666;2023-05-07T10:37:07;3.55;;;3.03;;
38615;SDS011;24370;51.986;4.666;2023-05-07T10:39:35;4.60;;;2.85;;
38615;SDS011;24370;51.986;4.666;2023-05-07T10:42:07;6.03;;;3.22;;
38615;SDS011;24370;51.986;4.666;2023-05-07T10:44:34;6.50;;;2.97;;
38615;SDS011;24370;51.986;4.666;2023-05-07T10:47:06;3.75;;;2.70;;
38615;SDS011;24370;51.986;4.666;2023-05-07T10:49:37;5.32;;;2.67;;
38615;SDS011;24370;51.986;4.666;2023-05-07T10:54:36;3.70;;;2.90;;
38615;SDS011;24370;51.986;4.666;2023-05-07T10:57:32;4.70;;;3.38;;
38615;SDS011;24370;51.986;4.666;2023-05-07T10:59:52;3.85;;;2.95;;
38615;SDS011;24370;51.986;4.666;2023-05-07T11:02:18;4.63;;;3.28;;
38615;SDS011;24370;51.986;4.666;2023-05-07T11:04:44;3.65;;;3.10;;
38615;SDS011;24370;51.986;4.666;2023-05-07T11:07:29;3.55;;;2.65;;
38615;SDS011;24370;51.986;4.666;2023-05-07T11:09:56;3.90;;;2.30;;
38615;SDS011;24370;51.986;4.666;2023-05-07T11:15:07;3.92;;;2.53;;
38615;SDS011;24370;51.986;4.666;2023-05-07T11:17:34;2.47;;;2.13;;
38615;SDS011;24370;51.986;4.666;2023-05-07T11:20:17;4.85;;;2.45;;
38615;SDS011;24370;51.986;4.666;2023-05-07T11:22:42;5.10;;;2.30;;
38615;SDS011;24370;51.986;4.666;2023-05-07T11:25:08;7.45;;;3.35;;
38615;SDS011;24370;51.986;4.666;2023-05-07T11:27:33;3.72;;;2.53;;
38615;SDS011;24370;51.986;4.666;2023-05-07T11:29:59;3.78;;;2.85;;
38615;SDS011;24370;51.986;4.666;2023-05-07T11:32:29;3.92;;;3.30;;
38615;SDS011;24370;51.986;4.666;2023-05-07T11:34:57;3.28;;;2.88;;
38615;SDS011;24370;51.986;4.666;2023-05-07T11:37:24;5.05;;;3.38;;
38615;SDS011;24370;51.986;4.666;2023-05-07T11:39:52;3.47;;;3.17;;
38615;SDS011;24370;51.986;4.666;2023-05-07T11:42:29;4.13;;;2.88;;
38615;SDS011;24370;51.986;4.666;2023-05-07T11:44:56;4.53;;;3.20;;
38615;SDS011;24370;51.986;4.666;2023-05-07T11:47:22;5.25;;;3.15;;
38615;SDS011;24370;51.986;4.666;2023-05-07T11:49:48;4.53;;;3.25;;
38615;SDS011;24370;51.986;4.666;2023-05-07T11:52:14;7.22;;;3.30;;
38615;SDS011;24370;51.986;4.666;2023-05-07T11:54:40;4.32;;;3.30;;
38615;SDS011;24370;51.986;4.666;2023-05-07T11:57:05;4.32;;;3.05;;
38615;SDS011;24370;51.986;4.666;2023-05-07T11:59:39;5.28;;;2.90;;
38615;SDS011;24370;51.986;4.666;2023-05-07T12:02:05;6.25;;;3.10;;
38615;SDS011;24370;51.986;4.666;2023-05-07T12:04:31;3.65;;;2.75;;
38615;SDS011;24370;51.986;4.666;2023-05-07T12:06:56;6.68;;;3.50;;
38615;SDS011;24370;51.986;4.666;2023-05-07T12:09:22;4.78;;;3.42;;
38615;SDS011;24370;51.986;4.666;2023-05-07T12:11:48;7.78;;;4.05;;
38615;SDS011;24370;51.986;4.666;2023-05-07T12:14:13;5.03;;;3.67;;
38615;SDS011;24370;51.986;4.666;2023-05-07T12:16:40;5.38;;;3.92;;
38615;SDS011;24370;51.986;4.666;2023-05-07T12:19:06;4.43;;;3.30;;
38615;SDS011;24370;51.986;4.666;2023-05-07T12:21:34;8.48;;;3.33;;
38615;SDS011;24370;51.986;4.666;2023-05-07T12:23:59;5.35;;;3.75;;
38615;SDS011;24370;51.986;4.666;2023-05-07T12:26:25;5.05;;;3.33;;
38615;SDS011;24370;51.986;4.666;2023-05-07T12:28:51;5.97;;;3.85;;
38615;SDS011;24370;51.986;4.666;2023-05-07T12:31:17;6.65;;;3.47;;
38615;SDS011;24370;51.986;4.666;2023-05-07T12:33:42;5.78;;;3.63;;
38615;SDS011;24370;51.986;4.666;2023-05-07T12:36:08;6.97;;;4.38;;
38615;SDS011;24370;51.986;4.666;2023-05-07T12:38:34;4.78;;;3.88;;
38615;SDS011;24370;51.986;4.666;2023-05-07T12:41:01;4.70;;;3.72;;
38615;SDS011;24370;51.986;4.666;2023-05-07T12:43:27;6.57;;;4.43;;
38615;SDS011;24370;51.986;4.666;2023-05-07T12:45:54;5.68;;;4.28;;
38615;SDS011;24370;51.986;4.666;2023-05-07T12:48:21;6.03;;;3.90;;
38615;SDS011;24370;51.986;4.666;2023-05-07T12:50:51;4.93;;;3.72;;
38615;SDS011;24370;51.986;4.666;2023-05-07T12:53:19;5.75;;;4.20;;
38615;SDS011;24370;51.986;4.666;2023-05-07T12:55:46;5.18;;;3.97;;
38615;SDS011;24370;51.986;4.666;2023-05-07T12:58:16;6.07;;;3.75;;
38615;SDS011;24370;51.986;4.666;2023-05-07T13:00:43;7.85;;;4.32;;
38615;SDS011;24370;51.986;4.666;2023-05-07T13:03:09;5.00;;;4.03;;
38615;SDS011;24370;51.986;4.666;2023-05-07T13:05:35;6.13;;;4.30;;
38615;SDS011;24370;51.986;4.666;2023-05-07T13:08:01;6.22;;;4.43;;
38615;SDS011;24370;51.986;4.666;2023-05-07T13:10:26;10.73;;;5.35;;
38615;SDS011;24370;51.986;4.666;2023-05-07T13:12:52;7.13;;;4.95;;
38615;SDS011;24370;51.986;4.666;2023-05-07T13:15:18;5.57;;;4.70;;
38615;SDS011;24370;51.986;4.666;2023-05-07T13:17:43;7.10;;;4.97;;
38615;SDS011;24370;51.986;4.666;2023-05-07T13:20:09;6.53;;;5.25;;
38615;SDS011;24370;51.986;4.666;2023-05-07T13:22:36;9.05;;;5.25;;
38615;SDS011;24370;51.986;4.666;2023-05-07T13:25:02;7.13;;;4.80;;
38615;SDS011;24370;51.986;4.666;2023-05-07T13:27:27;7.13;;;4.60;;
38615;SDS011;24370;51.986;4.666;2023-05-07T13:29:52;7.30;;;4.57;;
38615;SDS011;24370;51.986;4.666;2023-05-07T13:32:18;7.90;;;5.40;;
38615;SDS011;24370;51.986;4.666;2023-05-07T13:34:43;7.78;;;5.15;;
38615;SDS011;24370;51.986;4.666;2023-05-07T13:37:08;15.95;;;7.65;;
38615;SDS011;24370;51.986;4.666;2023-05-07T13:39:34;8.52;;;5.47;;
38615;SDS011;24370;51.986;4.666;2023-05-07T13:41:59;9.45;;;6.32;;
38615;SDS011;24370;51.986;4.666;2023-05-07T13:44:25;8.57;;;5.53;;
38615;SDS011;24370;51.986;4.666;2023-05-07T13:46:51;9.10;;;6.28;;
38615;SDS011;24370;51.986;4.666;2023-05-07T13:49:16;8.80;;;5.72;;
38615;SDS011;24370;51.986;4.666;2023-05-07T13:51:42;13.60;;;6.72;;
38615;SDS011;24370;51.986;4.666;2023-05-07T13:54:07;10.45;;;6.30;;
38615;SDS011;24370;51.986;4.666;2023-05-07T13:56:32;12.32;;;7.50;;
38615;SDS011;24370;51.986;4.666;2023-05-07T13:58:58;11.82;;;6.80;;
38615;SDS011;24370;51.986;4.666;2023-05-07T14:01:24;10.20;;;7.30;;
38615;SDS011;24370;51.986;4.666;2023-05-07T14:03:49;13.18;;;9.07;;
38615;SDS011;24370;51.986;4.666;2023-05-07T14:06:14;21.65;;;9.40;;
38615;SDS011;24370;51.986;4.666;2023-05-07T14:08:40;11.55;;;7.78;;
38615;SDS011;24370;51.986;4.666;2023-05-07T14:11:05;13.82;;;8.18;;
38615;SDS011;24370;51.986;4.666;2023-05-07T14:13:31;13.27;;;8.00;;
38615;SDS011;24370;51.986;4.666;2023-05-07T14:15:57;22.35;;;7.88;;
38615;SDS011;24370;51.986;4.666;2023-05-07T14:18:23;11.48;;;6.03;;
38615;SDS011;24370;51.986;4.666;2023-05-07T14:20:49;9.02;;;5.97;;
38615;SDS011;24370;51.986;4.666;2023-05-07T14:23:14;12.13;;;7.20;;
38615;SDS011;24370;51.986;4.666;2023-05-07T14:25:40;10.63;;;6.68;;
38615;SDS011;24370;51.986;4.666;2023-05-07T14:28:06;9.20;;;6.95;;
38615;SDS011;24370;51.986;4.666;2023-05-07T14:30:31;11.02;;;6.53;;
38615;SDS011;24370;51.986;4.666;2023-05-07T14:32:57;11.02;;;6.88;;
38615;SDS011;24370;51.986;4.666;2023-05-07T14:35:22;13.63;;;6.72;;
38615;SDS011;24370;51.986;4.666;2023-05-07T14:37:47;14.70;;;6.95;;
38615;SDS011;24370;51.986;4.666;2023-05-07T14:40:13;15.23;;;7.30;;
38615;SDS011;24370;51.986;4.666;2023-05-07T14:42:39;10.52;;;8.07;;
38615;SDS011;24370;51.986;4.666;2023-05-07T14:45:05;11.98;;;9.52;;